Aeroporto :
LOGIN :

Iscrizione | Disclaimer

   EN    FR    IT 

 










Sommario :    VFR   VFR Marginale   IFR   IFR Intensivo   IFR Molto Intensivo
Visibilità : 
Base nubi : 
>= 8 km
>= 3000ft
5 / 8 km
1000 / 3000 ft
1500m / 5 km
500 / 1000 ft
800 / 1500m
200 / 500 ft
< 800m
< 200 ft
Simboli :   Temporali  Nebbia  Neve Forte  Precipitazioni Forti  Vento > 20 kt
SIGMETs :   Varie  Temporali  Ghiacco  Turbolenza  Onda orograficha  Ceneri Vulcaniche






- Altitudine del aeroporto : 364 ft


LFAQ - Albert Bray

ULTIMO METAR :
  • 080300Z AUTO 21017KT 9999 BKN018 OVC024 09/08 Q1009

METARs OBSOLETI :
  • 080230Z AUTO 21016KT 9999 BKN017 OVC022 09/08 Q1010
  • 080200Z AUTO 20013KT 9999 OVC013 09/08 Q1011
  • 080130Z AUTO 20014KT 9999 BKN012 BKN019 OVC026 09/08 Q1011
  • 080100Z AUTO 19012KT 9999 OVC012 09/08 Q1011
  • 080030Z AUTO 19010KT 9999 BKN013 BKN022 OVC029 09/07 Q1012

Previsioni scadute.



MetMap, La meteo Aeronautica in un colpo d'occhio ! - Copyright ORBIFLY Dicembre 2007 - Disclaimer

ORBIFLY MET'MAP TEAM :

Programmazione e sviluppo : Alexandra Zaïnal
Concezione : Baudouin d'Aumeries
Aiuto per la programmazione : Marc-Olivier Méhu
Supporto tecnico e logistico : Manuel Goepfert
Aiuto per la traduzione : Arnaldo La Scala

Contatto : metmap@orbifly.com




FONTI E CREDITI :

   NOAA